Latest Weather Observations for Pallamana

IDS60901

Issued at 11:31 am CDT Sunday 18 February 2018 (issued every 10 minutes, with the page automatically refreshed every 10 minutes)

About weather observations | Map of Adelaide area stations | Latest observations for Adelaide area | Other Formats
Station Details ID: 024584 Name: PALLAMANA AERODROME Lat: -35.06 Lon: 139.23 Height: 45.0 m
Data from the previous 72 hours. | See also: Recent months at Pallamana
Date/Time
CDT
Temp
°C
App
Temp
°C
Dew
Point
°C
Rel
Hum
%
Delta-T
°C
Wind Press
QNH
hPa
Press
MSL
hPa
Rain since
9am
mm
Dir  Spd
km/h
Gust
km/h
Spd
kts
Gust
kts
18/11:30am 24.0 18.5 11.8 46 6.9 SSW 32 41 17 22 1013.6 1013.4 0.0
18/11:00am 23.8 20.6 12.0 47 6.7 SSW 20 26 11 14 1013.3 1013.1 0.0
18/10:30am 23.3 21.2 12.5 50 6.2 SSW 15 20 8 11 1012.9 1012.7 0.0
18/10:00am 21.6 20.4 12.8 57 5.0 S 11 22 6 12 1012.7 1012.5 0.0
18/09:30am 20.1 19.4 13.3 65 3.9 S 9 13 5 7 1012.9 1012.7 0.0
18/09:00am 19.0 18.4 13.4 70 3.2 S 9 15 5 8 1012.9 1012.7 0.0
18/08:30am 17.6 16.2 13.5 77 2.3 SSW 13 17 7 9 1012.8 1012.6 0.0
18/08:00am 16.2 15.4 13.9 86 1.3 WSW 11 15 6 8 1012.6 1012.4 0.0
18/07:30am 14.9 13.5 13.3 90 0.9 WSW 13 15 7 8 1012.3 1012.1 0.0
18/07:00am 14.4 12.9 13.1 92 0.7 SW 13 17 7 9 1011.6 1011.4 0.0
18/06:30am 13.7 12.4 12.4 92 0.7 WSW 11 15 6 8 1011.1 1011.0 0.0
18/06:00am 13.6 12.2 12.1 91 0.8 SW 11 13 6 7 1010.8 1010.7 0.0
18/05:30am 13.9 12.5 12.2 89 0.9 SW 11 13 6 7 1010.6 1010.5 0.0
18/05:00am 14.0 12.3 12.5 91 0.8 SW 13 15 7 8 1010.7 1010.6 0.0
18/04:30am 14.4 12.8 12.8 90 0.9 SW 13 15 7 8 1010.9 1010.8 0.0
18/04:00am 13.7 13.5 11.8 88 1.0 SW 4 11 2 6 1010.9 1010.8 0.0
18/03:30am 14.0 13.9 12.0 88 1.1 W 4 7 2 4 1010.9 1010.8 0.0
18/03:00am 15.0 14.2 12.8 87 1.2 W 9 11 5 6 1010.8 1010.7 0.0
18/02:30am 15.1 14.6 12.7 85 1.3 WSW 7 11 4 6 1011.4 1011.2 0.0
18/02:00am 14.9 15.7 12.5 85 1.3 CALM 0 0 0 0 1011.7 1011.5 0.0
18/01:30am 15.6 15.2 13.1 85 1.4 WSW 7 9 4 5 1012.1 1011.9 0.0
18/01:00am 15.9 14.8 13.2 84 1.5 WSW 11 13 6 7 1012.5 1012.3 0.0
18/12:30am 16.3 14.9 13.5 83 1.6 W 13 15 7 8 1012.5 1012.3 0.0
18/12:00am 16.1 14.3 13.4 84 1.5 WSW 15 15 8 8 1012.8 1012.6 0.0
 
Date/Time
CDT
Temp
°C
App
Temp
°C
Dew
Point
°C
Rel
Hum
%
Delta-T
°C
Wind Press
QNH
hPa
Press
MSL
hPa
Rain since
9am
mm
Dir  Spd
km/h
Gust
km/h
Spd
kts
Gust
kts
17/11:30pm 16.4 15.0 13.4 82 1.7 WSW 13 15 7 8 1012.9 1012.7 0.0
17/11:00pm 16.8 15.5 13.6 81 1.8 WSW 13 17 7 9 1012.9 1012.7 0.0
17/10:30pm 17.4 16.0 13.5 78 2.2 SW 13 15 7 8 1013.2 1013.0 0.0
17/10:00pm 18.1 16.4 13.5 74 2.6 SSW 15 19 8 10 1013.2 1013.0 0.0
17/09:30pm 18.7 16.5 13.4 71 3.0 SW 17 20 9 11 1013.0 1012.8 0.0
17/09:00pm 19.4 17.3 13.6 69 3.3 SSW 17 20 9 11 1012.5 1012.3 0.0
17/08:30pm 20.2 17.7 13.6 66 3.8 SSW 19 26 10 14 1012.0 1011.8 0.0
17/08:00pm 21.1 18.5 13.7 62 4.3 SSW 20 26 11 14 1011.6 1011.4 0.0
17/07:30pm 22.3 18.8 13.3 56 5.2 SSW 24 32 13 17 1011.3 1011.1 0.0
17/07:00pm 23.5 19.9 12.9 51 6.1 SSW 24 32 13 17 1011.1 1011.0 0.0
17/06:30pm 23.9 20.2 12.6 49 6.5 S 24 32 13 17 1011.0 1010.9 0.0
17/06:00pm 24.8 21.3 12.3 45 7.2 SSW 22 30 12 16 1010.9 1010.8 0.0
17/05:30pm 25.6 22.0 11.8 42 7.9 SSW 22 28 12 15 1010.9 1010.8 0.0
17/05:00pm 26.6 22.6 11.8 39 8.5 SSW 24 35 13 19 1010.9 1010.8 0.0
17/04:30pm 26.5 21.8 11.9 40 8.4 SSW 28 37 15 20 1011.3 1011.1 0.0
17/04:00pm 27.6 22.4 10.2 33 9.8 S 28 41 15 22 1010.9 1010.8 0.0
17/03:30pm 28.7 23.9 10.3 31 10.4 S 26 44 14 24 1011.0 1010.9 0.0
17/03:25pm 30.1 27.1 10.5 29 11.2 SSE 17 37 9 20 1011.0 1010.9 0.0
17/03:00pm 27.8 26.0 10.7 34 9.7 SW 11 17 6 9 1011.4 1011.2 0.0
17/02:30pm 28.3 26.5 11.0 34 9.9 ESE 11 15 6 8 1011.5 1011.3 0.0
17/02:00pm 27.0 25.9 10.7 36 9.2 NE 7 15 4 8 1011.9 1011.7 0.0
17/01:30pm 26.0 23.8 10.7 38 8.6 SE 13 20 7 11 1012.2 1012.0 0.0
17/01:00pm 24.4 23.4 11.0 43 7.5 ESE 7 17 4 9 1012.8 1012.6 0.0
17/12:30pm 23.3 22.0 11.1 46 6.8 SSE 9 13 5 7 1013.5 1013.3 0.0
17/12:00pm 22.6 21.6 10.9 47 6.5 NNE 7 15 4 8 1014.1 1013.9 0.0
17/11:30am 22.4 21.0 11.0 48 6.3 NE 9 17 5 9 1014.5 1014.3 0.0
17/11:00am 21.2 19.8 11.0 52 5.6 NE 9 15 5 8 1014.8 1014.6 0.0
17/10:30am 20.2 18.4 10.9 55 5.1 NNE 11 17 6 9 1015.1 1014.9 0.0
17/10:00am 19.1 17.3 10.8 58 4.5 NNE 11 17 6 9 1015.4 1015.2 0.0
17/09:30am 18.4 17.4 11.0 62 4.0 NE 7 15 4 8 1015.7 1015.5 0.0
17/09:00am 17.0 15.7 11.1 68 3.2 NE 9 13 5 7 1015.7 1015.5 0.0
17/08:30am 16.1 15.1 10.9 71 2.8 N 7 11 4 6 1015.6 1015.4 0.0
17/08:00am 14.7 13.9 11.1 79 1.9 NW 6 9 3 5 1015.4 1015.2 0.0
17/07:30am 12.5 11.0 10.6 88 1.0 NW 9 11 5 6 1014.9 1014.7 0.0
17/07:00am 11.0 9.3 9.8 92 0.6 NW 9 9 5 5 1014.5 1014.3 0.0
17/06:30am 10.5 8.9 8.7 89 0.9 NW 7 11 4 6 1013.9 1013.7 0.0
17/06:00am 10.4 8.7 8.4 87 1.0 WNW 7 9 4 5 1014.1 1013.9 0.0
17/05:30am 10.5 10.2 8.7 89 0.9 CALM 0 0 0 0 1013.9 1013.7 0.0
17/05:00am 10.6 10.3 8.8 89 0.9 CALM 0 0 0 0 1013.8 1013.6 0.0
17/04:30am 10.9 10.6 8.5 85 1.2 CALM 0 0 0 0 1013.9 1013.7 0.0
17/04:00am 11.7 10.5 9.5 86 1.1 SW 6 7 3 4 1013.9 1013.7 0.0
17/03:30am 12.3 10.3 10.0 86 1.2 SW 11 11 6 6 1014.0 1013.8 0.0
17/03:00am 12.4 11.0 9.7 83 1.4 SW 7 11 4 6 1014.0 1013.8 0.0
17/02:30am 13.0 10.6 10.1 82 1.5 SW 13 13 7 7 1014.0 1013.8 0.0
17/02:00am 13.1 10.7 10.0 81 1.6 SW 13 13 7 7 1014.3 1014.1 0.0
17/01:30am 13.6 11.3 10.3 80 1.7 SW 13 15 7 8 1014.7 1014.5 0.0
17/01:00am 13.9 11.6 10.3 79 1.9 SW 13 15 7 8 1015.0 1014.8 0.0
17/12:30am 13.5 11.7 9.6 77 2.0 SW 9 13 5 7 1015.3 1015.1 0.0
17/12:00am 14.2 11.8 10.0 76 2.2 SW 13 13 7 7 1015.6 1015.4 0.0
 
Date/Time
CDT
Temp
°C
App
Temp
°C
Dew
Point
°C
Rel
Hum
%
Delta-T
°C
Wind Press
QNH
hPa
Press
MSL
hPa
Rain since
9am
mm
Dir  Spd
km/h
Gust
km/h
Spd
kts
Gust
kts
16/11:30pm 14.5 12.5 10.1 75 2.3 SW 11 13 6 7 1015.6 1015.4 0.0
16/11:00pm 15.2 12.1 10.2 72 2.6 SW 17 19 9 10 1015.8 1015.6 0.0
16/10:30pm 15.6 13.3 10.3 70 2.8 SW 13 15 7 8 1015.7 1015.5 0.0
16/10:00pm 16.2 13.6 10.6 69 3.0 SW 15 17 8 9 1015.6 1015.4 0.0
16/09:30pm 17.4 15.1 10.5 64 3.7 SSW 13 17 7 9 1015.5 1015.3 0.0
16/09:00pm 18.1 15.8 10.5 61 4.1 S 13 19 7 10 1015.3 1015.1 0.0
16/08:30pm 18.8 15.2 10.4 58 4.5 S 20 28 11 15 1015.0 1014.8 0.0
16/08:00pm 19.7 15.8 10.7 56 4.9 S 22 32 12 17 1014.8 1014.6 0.0
16/07:30pm 20.9 16.5 10.4 51 5.7 S 24 32 13 17 1014.7 1014.5 0.0
16/07:00pm 21.5 17.1 10.5 49 6.0 S 24 33 13 18 1014.6 1014.4 0.0
16/06:30pm 22.4 17.8 11.0 48 6.3 S 26 35 14 19 1014.5 1014.3 0.0
16/06:00pm 22.9 19.6 11.7 49 6.3 S 20 32 11 17 1014.4 1014.2 0.0
16/05:30pm 24.2 20.0 11.0 43 7.4 SSW 24 33 13 18 1014.3 1014.1 0.0
16/05:00pm 24.3 19.3 11.1 43 7.4 SSW 28 35 15 19 1014.2 1014.0 0.0
16/04:30pm 24.8 21.6 11.1 42 7.7 SSW 19 28 10 15 1014.5 1014.3 0.0
16/04:00pm 25.1 21.8 10.8 40 8.0 SSW 19 30 10 16 1014.7 1014.5 0.0
16/03:30pm 24.7 23.0 11.2 42 7.6 SSW 11 20 6 11 1014.9 1014.7 0.0
16/03:00pm 23.4 21.8 11.7 47 6.6 S 11 17 6 9 1015.5 1015.3 0.0
16/02:30pm 23.7 21.7 11.6 46 6.8 SSE 13 20 7 11 1015.7 1015.5 0.0
16/02:00pm 22.6 21.5 12.0 51 6.0 SE 9 19 5 10 1016.1 1015.9 0.0
16/01:30pm 21.8 21.3 12.2 54 5.4 SSW 6 11 3 6 1016.5 1016.3 0.0
16/01:00pm 20.7 20.4 12.6 59 4.6 E 6 11 3 6 1016.7 1016.5 0.0
16/12:30pm 20.0 19.1 12.5 62 4.2 SSW 9 13 5 7 1017.0 1016.8 0.0
16/12:00pm 20.7 20.3 13.0 61 4.4 ESE 7 13 4 7 1017.1 1016.9 0.0
16/11:30am 19.8 19.2 13.5 67 3.6 S 9 13 5 7 1017.4 1017.2 0.0
16/11:00am 19.0 17.4 13.8 72 3.0 SSE 15 19 8 10 1017.4 1017.2 0.0
16/10:30am 19.0 17.0 13.9 72 2.9 SE 17 20 9 11 1017.4 1017.2 0.0
16/10:00am 18.5 16.0 14.1 75 2.5 SSE 20 30 11 16 1017.2 1017.0 0.0
16/09:30am 19.4 18.3 13.0 66 3.6 SE 11 20 6 11 1017.1 1016.9 0.0
16/09:00am 18.7 17.6 13.2 70 3.1 S 11 13 6 7 1017.3 1017.1 0.0
16/08:30am 18.2 17.3 13.6 74 2.6 WSW 11 15 6 8 1017.1 1016.9 0.0
16/08:00am 17.9 17.0 13.7 76 2.4 WSW 11 13 6 7 1016.6 1016.4 0.0
16/07:30am 16.5 16.4 13.9 84 1.5 WSW 7 9 4 5 1016.4 1016.2 0.0
16/07:00am 15.6 14.9 13.3 86 1.3 WSW 9 9 5 5 1016.1 1015.9 0.0
16/06:30am 15.9 14.8 13.2 84 1.5 WSW 11 11 6 6 1015.9 1015.7 0.0
16/06:00am 15.9 14.4 13.0 83 1.6 WSW 13 15 7 8 1015.9 1015.7 0.0
16/05:30am 16.2 14.7 13.0 81 1.8 WSW 13 15 7 8 1015.6 1015.4 0.0
16/05:00am 16.7 14.8 13.1 79 2.0 WSW 15 17 8 9 1015.4 1015.2 0.0
16/04:30am 16.8 15.3 13.2 79 2.0 WSW 13 17 7 9 1015.2 1015.0 0.0
16/04:00am 16.8 15.0 13.2 79 2.0 WSW 15 20 8 11 1015.1 1014.9 0.0
16/03:30am 17.1 14.9 13.2 78 2.2 WSW 17 20 9 11 1015.3 1015.1 0.0
16/03:00am 16.9 15.4 13.0 78 2.2 WSW 13 17 7 9 1015.5 1015.3 0.0
16/02:30am 16.6 14.3 13.0 79 2.0 WSW 17 22 9 12 1015.5 1015.3 0.0
16/02:00am 15.6 13.9 12.3 81 1.8 WSW 13 15 7 8 1015.7 1015.5 0.0
16/01:30am 15.9 13.9 12.6 81 1.8 WSW 15 17 8 9 1015.7 1015.5 0.0
16/01:00am 16.2 14.5 12.6 79 2.0 SW 13 17 7 9 1015.8 1015.6 0.0
16/12:30am 16.7 15.0 12.5 76 2.3 SW 13 17 7 9 1015.8 1015.6 0.0
16/12:00am 17.4 15.5 13.1 76 2.4 SW 15 20 8 11 1015.8 1015.6 0.0
 
Date/Time
CDT
Temp
°C
App
Temp
°C
Dew
Point
°C
Rel
Hum
%
Delta-T
°C
Wind Press
QNH
hPa
Press
MSL
hPa
Rain since
9am
mm
Dir  Spd
km/h
Gust
km/h
Spd
kts
Gust
kts
15/11:30pm 17.4 16.2 12.9 75 2.5 SW 11 11 6 6 1015.9 1015.7 0.0
15/11:00pm 17.9 16.3 12.9 72 2.8 SSW 13 15 7 8 1016.0 1015.8 0.0
15/10:30pm 18.2 15.5 12.8 71 3.0 SSW 19 28 10 15 1016.2 1016.0 0.0
15/10:00pm 18.5 15.7 12.6 68 3.3 SW 19 22 10 12 1016.4 1016.2 0.0
15/09:30pm 18.7 16.0 12.8 68 3.3 SSW 19 24 10 13 1016.0 1015.8 0.0
15/09:00pm 18.9 15.9 12.5 66 3.6 S 20 28 11 15 1016.0 1015.8 0.0
15/08:30pm 19.2 15.5 12.6 65 3.7 SSW 24 33 13 18 1015.8 1015.6 0.0
15/08:00pm 19.5 15.9 11.7 60 4.3 SSW 22 28 12 15 1015.9 1015.7 0.0
15/07:30pm 19.8 16.2 11.9 60 4.4 S 22 30 12 16 1015.5 1015.3 0.0
15/07:00pm 20.3 16.7 11.9 58 4.7 SSW 22 28 12 15 1015.6 1015.4 0.0
15/06:30pm 20.5 16.2 11.9 57 4.8 SSW 26 35 14 19 1015.6 1015.4 0.0
15/06:00pm 21.6 17.0 10.9 50 5.9 SSW 26 39 14 21 1015.5 1015.3 0.0
15/05:30pm 22.5 17.4 10.5 46 6.6 SSW 28 37 15 20 1015.4 1015.2 0.0
15/05:00pm 23.0 17.7 9.8 43 7.2 SSW 28 39 15 21 1015.6 1015.4 0.0
15/04:30pm 23.4 18.4 9.4 41 7.6 S 26 41 14 22 1015.2 1015.0 0.0
15/04:00pm 23.4 18.0 9.6 41 7.5 S 28 39 15 21 1015.3 1015.1 0.0
15/03:30pm 23.4 17.1 9.8 42 7.4 SSE 33 43 18 23 1015.4 1015.2 0.0
15/03:00pm 24.2 18.9 10.0 40 7.8 SSE 28 41 15 22 1015.5 1015.3 0.0
15/02:30pm 24.5 18.5 10.0 40 8.0 S 32 46 17 25 1015.7 1015.5 0.0
15/02:14pm 24.7 18.7 10.0 39 8.1 S 32 44 17 24 1015.6 1015.4 0.0
15/02:00pm 26.5 22.0 7.0 29 10.3 W 20 30 11 16 1015.7 1015.5 0.0
15/01:30pm 26.2 21.7 6.8 29 10.2 WSW 20 33 11 18 1015.9 1015.7 0.0
15/01:00pm 24.8 22.7 8.4 35 8.8 N 9 15 5 8 1016.2 1016.0 0.0
15/12:30pm 24.6 21.7 8.1 35 8.8 W 13 30 7 16 1016.7 1016.5 0.0
15/12:00pm 23.0 20.1 8.3 39 7.8 SSW 13 20 7 11 1017.0 1016.8 0.0

Latest Capital City Observations: Canberra | Sydney | Melbourne | Brisbane | Adelaide | Perth | Hobart | Darwin

Other Formats:

Comma delimited format used in spreadsheet applications
http://www.bom.gov.au/fwo/IDS60901/IDS60901.95818.axf

JavaScript Object Notation format (JSON) in row-major order
http://www.bom.gov.au/fwo/IDS60901/IDS60901.95818.json